createdAt,value
2023-01-21T00:02:16.186Z,3.20
2023-01-21T00:04:44.067Z,3.13
2023-01-21T00:07:10.640Z,3.30
2023-01-21T00:09:39.782Z,3.27
2023-01-21T00:12:06.501Z,3.00
2023-01-21T00:14:33.233Z,3.00
2023-01-21T00:17:02.241Z,3.03
2023-01-21T00:19:33.435Z,3.00
2023-01-21T00:22:00.138Z,3.10
2023-01-21T00:24:27.053Z,3.40
2023-01-21T00:27:00.404Z,3.00
2023-01-21T00:29:34.302Z,2.73
2023-01-21T00:32:03.484Z,3.67
2023-01-21T00:34:32.584Z,3.37
2023-01-21T00:37:02.041Z,3.23
2023-01-21T00:39:31.683Z,2.90
2023-01-21T00:41:58.354Z,3.33
2023-01-21T00:44:25.030Z,3.20
2023-01-21T00:46:53.859Z,3.17
2023-01-21T00:49:26.301Z,3.20
2023-01-21T00:51:55.957Z,3.30
2023-01-21T00:54:22.640Z,3.37
2023-01-21T00:56:49.218Z,3.30
2023-01-21T00:59:16.129Z,3.47
2023-01-21T01:01:42.980Z,3.23
2023-01-21T01:04:12.089Z,3.23
2023-01-21T01:06:38.694Z,2.83
2023-01-21T01:09:05.576Z,2.87
2023-01-21T01:11:32.192Z,3.10
2023-01-21T01:14:04.298Z,3.23
2023-01-21T01:16:36.499Z,3.10
2023-01-21T01:19:05.260Z,3.00
2023-01-21T01:21:37.212Z,3.23
2023-01-21T01:24:03.927Z,3.10
2023-01-21T01:26:30.575Z,3.40
2023-01-21T01:28:57.100Z,3.20
2023-01-21T01:31:23.672Z,3.57
2023-01-21T01:33:50.307Z,3.10
2023-01-21T01:36:18.950Z,3.07
2023-01-21T01:38:45.695Z,3.17
2023-01-21T01:41:16.927Z,3.40
2023-01-21T01:44:01.264Z,2.83
2023-01-21T01:46:32.740Z,3.10
2023-01-21T01:49:00.843Z,3.40
2023-01-21T01:51:31.398Z,2.97
2023-01-21T01:53:57.968Z,2.80
2023-01-21T01:56:24.465Z,3.07
2023-01-21T01:58:51.086Z,3.13
2023-01-21T02:01:17.682Z,3.20
2023-01-21T02:03:44.474Z,3.10
2023-01-21T02:06:14.582Z,3.20
2023-01-21T02:08:41.316Z,2.97
2023-01-21T02:11:18.720Z,2.93
2023-01-21T02:13:48.072Z,3.23
2023-01-21T02:16:24.635Z,3.17
2023-01-21T02:19:09.288Z,3.47
2023-01-21T02:22:00.697Z,3.03
2023-01-21T02:24:51.681Z,3.40
2023-01-21T02:27:43.505Z,3.37
2023-01-21T02:30:28.961Z,2.80
2023-01-21T02:33:22.858Z,3.20
2023-01-21T02:36:04.528Z,3.20
2023-01-21T02:38:46.295Z,3.30
2023-01-21T02:41:35.483Z,3.43
2023-01-21T02:44:11.902Z,3.33
2023-01-21T02:46:47.473Z,2.97
2023-01-21T02:49:34.140Z,3.30
2023-01-21T02:52:00.668Z,3.40
2023-01-21T02:54:39.048Z,3.23
2023-01-21T02:57:13.890Z,3.10
2023-01-21T02:59:40.679Z,3.00
2023-01-21T03:02:17.318Z,3.03
2023-01-21T03:05:03.837Z,3.10
2023-01-21T03:07:33.735Z,3.33
2023-01-21T03:10:10.953Z,3.13
2023-01-21T03:13:03.787Z,3.07
2023-01-21T03:15:57.777Z,3.40
2023-01-21T03:18:32.967Z,3.13
2023-01-21T03:21:21.768Z,2.80
2023-01-21T03:23:48.795Z,3.03
2023-01-21T03:26:18.030Z,3.43
2023-01-21T03:28:45.799Z,3.07
2023-01-21T03:31:20.890Z,3.30
2023-01-21T03:33:48.195Z,3.23
2023-01-21T03:36:35.375Z,3.03
2023-01-21T03:39:04.796Z,3.17
2023-01-21T03:41:33.996Z,3.07
2023-01-21T03:44:00.672Z,2.80
2023-01-21T03:46:27.082Z,3.30
2023-01-21T03:48:57.357Z,3.10
2023-01-21T03:51:27.703Z,3.17
2023-01-21T03:53:57.812Z,3.03
2023-01-21T03:56:25.253Z,2.97
2023-01-21T03:58:51.852Z,3.40
2023-01-21T04:01:18.452Z,3.10
2023-01-21T04:03:45.006Z,2.80
2023-01-21T04:06:15.332Z,2.90
2023-01-21T04:08:41.913Z,3.23
2023-01-21T04:11:08.421Z,3.23
2023-01-21T04:13:34.957Z,2.83
2023-01-21T04:16:01.544Z,2.90
2023-01-21T04:18:28.046Z,2.73
2023-01-21T04:20:54.631Z,2.90
2023-01-21T04:23:21.210Z,2.70
2023-01-21T04:25:48.672Z,3.40
2023-01-21T04:28:15.181Z,2.80
2023-01-21T04:30:41.678Z,2.80
2023-01-21T04:33:08.289Z,2.77
2023-01-21T04:35:38.449Z,3.10
2023-01-21T04:38:05.134Z,2.90
2023-01-21T04:40:31.637Z,2.90
2023-01-21T04:42:58.118Z,2.90
2023-01-21T04:45:24.637Z,3.00
2023-01-21T04:47:51.204Z,2.80
2023-01-21T04:50:18.307Z,2.90
2023-01-21T04:52:45.041Z,3.17
2023-01-21T04:55:11.728Z,2.73
2023-01-21T04:57:38.361Z,3.00
2023-01-21T05:00:05.589Z,2.97
2023-01-21T05:02:32.960Z,3.03
2023-01-21T05:04:59.459Z,2.80
2023-01-21T05:07:25.995Z,2.60
2023-01-21T05:09:52.496Z,2.90
2023-01-21T05:12:19.234Z,3.00
2023-01-21T05:14:45.840Z,3.07
2023-01-21T05:17:12.344Z,2.93
2023-01-21T05:19:38.856Z,3.10
2023-01-21T05:22:05.440Z,2.93
2023-01-21T05:24:31.917Z,2.90
2023-01-21T05:26:58.472Z,2.97
2023-01-21T05:29:25.009Z,2.53
2023-01-21T05:31:51.525Z,3.07
2023-01-21T05:34:18.092Z,3.00
2023-01-21T05:36:45.101Z,2.70
2023-01-21T05:39:11.605Z,2.90
2023-01-21T05:41:38.096Z,2.90
2023-01-21T05:44:04.701Z,2.73
2023-01-21T05:46:31.205Z,2.97
2023-01-21T05:48:57.775Z,2.90
2023-01-21T05:51:24.389Z,2.87
2023-01-21T05:53:50.949Z,3.10
2023-01-21T05:56:17.420Z,2.83
2023-01-21T05:58:43.947Z,2.57
2023-01-21T06:01:10.511Z,2.83
2023-01-21T06:03:38.194Z,2.97
2023-01-21T06:06:04.933Z,2.80
2023-01-21T06:08:31.439Z,3.10
2023-01-21T06:10:57.956Z,2.90
2023-01-21T06:13:24.594Z,2.93
2023-01-21T06:15:54.379Z,2.93
2023-01-21T06:18:20.941Z,2.80
2023-01-21T06:20:47.500Z,2.90
2023-01-21T06:23:13.988Z,2.80
2023-01-21T06:25:40.866Z,2.93
2023-01-21T06:28:07.384Z,3.30
2023-01-21T06:30:33.966Z,2.97
2023-01-21T06:33:00.522Z,2.50
2023-01-21T06:35:27.089Z,2.97
2023-01-21T06:37:53.616Z,2.80
2023-01-21T06:40:20.277Z,2.80
2023-01-21T06:42:47.457Z,2.83
2023-01-21T06:45:14.320Z,2.97
2023-01-21T06:47:44.064Z,2.90
2023-01-21T06:50:11.659Z,2.80
2023-01-21T06:52:38.199Z,2.80
2023-01-21T06:55:05.130Z,3.23
2023-01-21T06:57:31.682Z,4.07
2023-01-21T06:59:58.166Z,4.83
2023-01-21T07:02:24.748Z,4.17
2023-01-21T07:04:51.483Z,5.13
2023-01-21T07:07:18.033Z,4.30
2023-01-21T07:09:44.552Z,4.13
2023-01-21T07:12:11.098Z,4.80
2023-01-21T07:14:37.676Z,4.17
2023-01-21T07:17:04.161Z,4.20
2023-01-21T07:19:30.690Z,4.37
2023-01-21T07:21:57.205Z,4.27
2023-01-21T07:24:23.717Z,4.30
2023-01-21T07:26:50.288Z,4.40
2023-01-21T07:29:16.887Z,3.83
2023-01-21T07:31:43.498Z,4.43
2023-01-21T07:34:10.141Z,4.53
2023-01-21T07:36:36.663Z,4.50
2023-01-21T07:39:03.223Z,4.40
2023-01-21T07:41:29.745Z,4.63
2023-01-21T07:43:56.331Z,4.27
2023-01-21T07:46:23.149Z,4.27
2023-01-21T07:48:51.133Z,5.07
2023-01-21T07:51:21.000Z,5.80
2023-01-21T07:53:47.566Z,8.93
2023-01-21T07:56:14.952Z,9.63
2023-01-21T07:58:41.496Z,10.50
2023-01-21T08:01:08.306Z,11.70
2023-01-21T08:03:37.871Z,11.57
2023-01-21T08:06:05.362Z,11.73
2023-01-21T08:08:32.428Z,11.60
2023-01-21T08:10:58.944Z,11.70
2023-01-21T08:13:25.547Z,12.17
2023-01-21T08:15:52.867Z,12.10
2023-01-21T08:18:19.506Z,12.73
2023-01-21T08:20:45.985Z,13.00
2023-01-21T08:23:12.526Z,11.27
2023-01-21T08:25:39.028Z,10.97
2023-01-21T08:28:05.757Z,11.17
2023-01-21T08:30:32.337Z,10.53
2023-01-21T08:32:58.886Z,10.17
2023-01-21T08:35:25.418Z,10.03
2023-01-21T08:37:54.662Z,9.23
2023-01-21T08:40:21.164Z,8.70
2023-01-21T08:42:48.230Z,7.83
2023-01-21T08:45:15.519Z,7.53
2023-01-21T08:47:42.115Z,7.53
2023-01-21T08:50:09.753Z,7.73
2023-01-21T08:52:36.397Z,7.53
2023-01-21T08:55:02.928Z,7.37
2023-01-21T08:57:29.436Z,6.80
2023-01-21T08:59:55.950Z,7.33
2023-01-21T09:02:22.658Z,6.77
2023-01-21T09:04:50.555Z,7.20
2023-01-21T09:07:17.089Z,6.70
2023-01-21T09:09:43.645Z,6.63
2023-01-21T09:12:10.203Z,7.10
2023-01-21T09:14:36.782Z,7.07
2023-01-21T09:17:03.370Z,7.03
2023-01-21T09:19:29.894Z,6.90
2023-01-21T09:21:56.405Z,6.80
2023-01-21T09:24:23.717Z,6.00
2023-01-21T09:26:50.245Z,6.53
2023-01-21T09:29:16.816Z,5.57
2023-01-21T09:31:43.312Z,6.47
2023-01-21T09:34:10.804Z,6.00
2023-01-21T09:36:37.468Z,6.50
2023-01-21T09:39:04.046Z,6.33
2023-01-21T09:41:38.435Z,5.70
2023-01-21T09:44:32.719Z,6.43
2023-01-21T09:47:18.119Z,5.30
2023-01-21T09:49:50.320Z,6.03
2023-01-21T09:52:24.918Z,5.47
2023-01-21T09:54:51.472Z,5.40
2023-01-21T09:57:24.045Z,5.70
2023-01-21T10:00:05.693Z,5.50
2023-01-21T10:02:50.869Z,5.30
2023-01-21T10:05:32.759Z,5.23
2023-01-21T10:08:23.696Z,5.57
2023-01-21T10:11:15.094Z,5.30
2023-01-21T10:13:44.729Z,5.03
2023-01-21T10:16:31.368Z,4.83
2023-01-21T10:18:57.915Z,4.20
2023-01-21T10:21:51.820Z,4.80
2023-01-21T10:24:24.297Z,4.33
2023-01-21T10:26:51.337Z,4.90
2023-01-21T10:29:18.730Z,4.57
2023-01-21T10:31:50.021Z,4.17
2023-01-21T10:34:17.752Z,5.03
2023-01-21T10:36:50.648Z,4.77
2023-01-21T10:39:42.131Z,4.53
2023-01-21T10:42:08.584Z,4.30
2023-01-21T10:44:41.639Z,4.40
2023-01-21T10:47:23.237Z,4.43
2023-01-21T10:50:13.654Z,4.17
2023-01-21T10:52:52.269Z,4.40
2023-01-21T10:55:20.182Z,4.00
2023-01-21T10:58:00.139Z,4.07
2023-01-21T11:00:32.998Z,4.20
2023-01-21T11:03:05.790Z,4.10
2023-01-21T11:05:32.349Z,3.63
2023-01-21T11:07:58.867Z,3.90
2023-01-21T11:10:26.094Z,4.00
2023-01-21T11:12:55.951Z,4.00
2023-01-21T11:15:22.891Z,3.93
2023-01-21T11:17:56.315Z,4.10
2023-01-21T11:20:29.847Z,3.70
2023-01-21T11:22:56.449Z,3.80
2023-01-21T11:25:41.696Z,4.33
2023-01-21T11:28:25.335Z,3.93
2023-01-21T11:31:07.237Z,3.80
2023-01-21T11:33:33.908Z,3.90
2023-01-21T11:36:18.989Z,4.00
2023-01-21T11:38:47.359Z,4.17
2023-01-21T11:41:20.585Z,3.80
2023-01-21T11:43:55.009Z,3.90
2023-01-21T11:46:22.644Z,3.60
2023-01-21T11:48:49.460Z,3.60
2023-01-21T11:51:17.831Z,3.90
2023-01-21T11:53:46.561Z,3.70
2023-01-21T11:56:14.635Z,4.00
2023-01-21T11:58:41.177Z,3.57
2023-01-21T12:01:09.538Z,3.60
2023-01-21T12:04:05.660Z,3.67
2023-01-21T12:06:32.277Z,3.67
2023-01-21T12:09:02.403Z,3.70
2023-01-21T12:11:29.556Z,3.47
2023-01-21T12:14:01.953Z,3.60
2023-01-21T12:16:34.845Z,3.87
2023-01-21T12:19:19.562Z,4.03
2023-01-21T12:22:07.946Z,3.57
2023-01-21T12:24:46.523Z,4.40
2023-01-21T12:27:19.075Z,3.90
2023-01-21T12:30:07.201Z,4.37
2023-01-21T12:32:38.973Z,4.00
2023-01-21T12:35:33.099Z,3.90
2023-01-21T12:38:03.489Z,5.07
2023-01-21T12:41:07.665Z,5.10
2023-01-21T12:43:36.030Z,5.43
2023-01-21T12:46:11.865Z,5.93
2023-01-21T12:48:42.223Z,6.93
2023-01-21T12:51:11.228Z,7.47
2023-01-21T12:53:44.451Z,6.63
2023-01-21T12:56:34.121Z,6.77
2023-01-21T12:59:08.863Z,6.07
2023-01-21T13:01:57.540Z,6.13
2023-01-21T13:04:47.193Z,5.80
2023-01-21T13:07:38.397Z,5.37
2023-01-21T13:10:15.768Z,5.63
2023-01-21T13:12:43.787Z,5.37
2023-01-21T13:15:17.750Z,5.17
2023-01-21T13:17:47.435Z,5.40
2023-01-21T13:20:21.912Z,5.30
2023-01-21T13:23:20.790Z,5.30
2023-01-21T13:26:14.526Z,5.00
2023-01-21T13:29:18.684Z,4.93
2023-01-21T13:32:15.998Z,4.57
2023-01-21T13:35:09.432Z,4.83
2023-01-21T13:38:07.432Z,4.40
2023-01-21T13:40:52.811Z,4.30
2023-01-21T13:43:22.200Z,4.63
2023-01-21T13:46:03.980Z,4.10
2023-01-21T13:48:43.120Z,4.00
2023-01-21T13:51:31.185Z,4.23
2023-01-21T13:54:21.943Z,4.57
2023-01-21T13:57:13.054Z,4.97
2023-01-21T13:59:44.428Z,5.40
2023-01-21T14:02:16.318Z,5.60
2023-01-21T14:05:20.850Z,5.13
2023-01-21T14:07:50.912Z,5.07
2023-01-21T14:10:51.251Z,4.50
2023-01-21T14:13:40.859Z,4.50
2023-01-21T14:16:49.088Z,4.60
2023-01-21T14:19:18.379Z,4.27
2023-01-21T14:22:15.172Z,4.20
2023-01-21T14:24:46.660Z,4.27
2023-01-21T14:27:16.017Z,4.13
2023-01-21T14:30:04.651Z,3.80
2023-01-21T14:32:41.746Z,5.10
2023-01-21T14:35:18.848Z,5.20
2023-01-21T14:38:10.987Z,4.97
2023-01-21T14:40:45.088Z,4.83
2023-01-21T14:43:36.607Z,4.70
2023-01-21T14:46:21.750Z,4.53
2023-01-21T14:49:08.293Z,4.77
2023-01-21T14:51:42.710Z,4.57
2023-01-21T14:54:14.601Z,4.03
2023-01-21T14:56:41.144Z,4.37
2023-01-21T14:59:23.715Z,4.80
2023-01-21T15:01:51.377Z,4.10
2023-01-21T15:04:40.994Z,4.33
2023-01-21T15:07:17.464Z,4.10
2023-01-21T15:09:47.149Z,4.20
2023-01-21T15:12:32.491Z,4.40
2023-01-21T15:15:03.514Z,4.07
2023-01-21T15:17:46.185Z,4.20
2023-01-21T15:20:44.517Z,4.00
2023-01-21T15:23:19.156Z,3.67
2023-01-21T15:26:07.417Z,3.63
2023-01-21T15:28:43.799Z,3.97
2023-01-21T15:31:20.432Z,3.63
2023-01-21T15:33:46.989Z,3.93
2023-01-21T15:36:20.427Z,3.33
2023-01-21T15:38:47.082Z,3.33
2023-01-21T15:41:27.688Z,3.80
2023-01-21T15:44:19.160Z,3.87
2023-01-21T15:47:13.527Z,3.67
2023-01-21T15:49:59.705Z,4.00
2023-01-21T15:52:57.179Z,4.57
2023-01-21T15:55:47.838Z,4.60
2023-01-21T15:58:26.464Z,5.53
2023-01-21T16:01:19.314Z,5.77
2023-01-21T16:03:55.042Z,5.03
2023-01-21T16:06:30.504Z,5.30
2023-01-21T16:09:06.906Z,5.33
2023-01-21T16:11:48.525Z,5.13
2023-01-21T16:14:26.162Z,4.73
2023-01-21T16:17:17.443Z,4.70
2023-01-21T16:19:46.637Z,5.47
2023-01-21T16:22:14.866Z,4.40
2023-01-21T16:24:47.582Z,5.03
2023-01-21T16:27:19.852Z,4.53
2023-01-21T16:29:46.426Z,4.27
2023-01-21T16:32:17.656Z,4.73
2023-01-21T16:34:44.520Z,5.27
2023-01-21T16:37:18.969Z,4.63
2023-01-21T16:39:45.625Z,4.60
2023-01-21T16:42:33.998Z,4.93
2023-01-21T16:45:00.569Z,4.63
2023-01-21T16:47:35.597Z,4.60
2023-01-21T16:50:02.591Z,5.03
2023-01-21T16:52:29.938Z,4.47
2023-01-21T16:54:56.511Z,4.63
2023-01-21T16:57:31.611Z,4.40
2023-01-21T16:59:58.646Z,4.73
2023-01-21T17:02:28.478Z,5.17
2023-01-21T17:04:56.797Z,4.13
2023-01-21T17:07:30.401Z,4.13
2023-01-21T17:10:02.788Z,4.40
2023-01-21T17:12:29.469Z,4.30
2023-01-21T17:15:00.660Z,4.33
2023-01-21T17:17:30.082Z,4.20
2023-01-21T17:19:57.086Z,4.87
2023-01-21T17:22:23.720Z,4.80
2023-01-21T17:25:36.436Z,3.93
2023-01-21T17:28:24.707Z,4.63
2023-01-21T17:30:51.490Z,4.80
2023-01-21T17:33:30.384Z,4.53
2023-01-21T17:36:13.389Z,4.40
2023-01-21T17:38:44.432Z,4.80
2023-01-21T17:41:41.229Z,4.17
2023-01-21T17:44:16.511Z,4.07
2023-01-21T17:46:50.288Z,4.70
2023-01-21T17:49:18.468Z,4.43
2023-01-21T17:51:45.191Z,4.67
2023-01-21T17:54:18.245Z,4.20
2023-01-21T17:56:50.650Z,4.53
2023-01-21T17:59:37.604Z,4.00
2023-01-21T18:02:11.855Z,4.10
2023-01-21T18:04:38.727Z,4.40
2023-01-21T18:07:25.048Z,4.07
2023-01-21T18:09:51.868Z,4.57
2023-01-21T18:12:19.559Z,4.03
2023-01-21T18:14:46.825Z,4.57
2023-01-21T18:17:18.501Z,4.27
2023-01-21T18:19:45.080Z,3.87
2023-01-21T18:22:26.613Z,5.07
2023-01-21T18:24:53.133Z,3.83
2023-01-21T18:27:20.659Z,4.07
2023-01-21T18:29:47.918Z,4.77
2023-01-21T18:32:14.692Z,4.43
2023-01-21T18:34:41.338Z,3.90
2023-01-21T18:37:14.928Z,4.23
2023-01-21T18:39:41.476Z,4.33
2023-01-21T18:42:15.232Z,4.50
2023-01-21T18:44:41.816Z,3.80
2023-01-21T18:47:16.749Z,4.10
2023-01-21T18:49:43.331Z,3.60
2023-01-21T18:52:19.521Z,4.27
2023-01-21T18:54:46.070Z,4.30
2023-01-21T18:57:14.649Z,4.30
2023-01-21T18:59:41.160Z,4.20
2023-01-21T19:02:18.056Z,4.43
2023-01-21T19:04:44.829Z,3.90
2023-01-21T19:07:15.579Z,4.00
2023-01-21T19:09:45.998Z,3.60
2023-01-21T19:12:13.522Z,3.93
2023-01-21T19:14:40.559Z,3.50
2023-01-21T19:17:12.116Z,3.63
2023-01-21T19:19:38.691Z,3.90
2023-01-21T19:22:06.384Z,3.80
2023-01-21T19:24:32.922Z,3.87
2023-01-21T19:26:59.466Z,3.90
2023-01-21T19:29:28.382Z,3.83
2023-01-21T19:31:55.042Z,3.90
2023-01-21T19:34:24.980Z,3.90
2023-01-21T19:36:52.248Z,3.60
2023-01-21T19:39:25.424Z,4.13
2023-01-21T19:42:07.072Z,4.00
2023-01-21T19:44:34.406Z,3.63
2023-01-21T19:47:01.089Z,4.23
2023-01-21T19:49:27.707Z,3.73
2023-01-21T19:51:54.209Z,3.80
2023-01-21T19:54:20.723Z,4.13
2023-01-21T19:56:47.259Z,4.40
2023-01-21T19:59:15.022Z,4.07
2023-01-21T20:01:41.738Z,4.20
2023-01-21T20:04:08.964Z,3.97
2023-01-21T20:06:37.789Z,4.17
2023-01-21T20:09:04.632Z,4.10
2023-01-21T20:11:31.211Z,4.10
2023-01-21T20:13:57.722Z,3.80
2023-01-21T20:16:26.283Z,4.00
2023-01-21T20:18:55.255Z,4.00
2023-01-21T20:21:21.768Z,3.80
2023-01-21T20:23:48.321Z,3.63
2023-01-21T20:26:18.017Z,4.20
2023-01-21T20:28:46.896Z,3.63
2023-01-21T20:31:13.599Z,4.10
2023-01-21T20:33:41.167Z,3.73
2023-01-21T20:36:18.109Z,3.57
2023-01-21T20:38:44.653Z,4.00
2023-01-21T20:41:11.409Z,3.63
2023-01-21T20:43:37.969Z,4.13
2023-01-21T20:46:06.561Z,4.07
2023-01-21T20:48:38.591Z,3.80
2023-01-21T20:51:05.472Z,3.80
2023-01-21T20:53:32.061Z,4.17
2023-01-21T20:56:00.376Z,3.80
2023-01-21T20:58:28.067Z,4.00
2023-01-21T21:00:54.624Z,3.50
2023-01-21T21:03:21.187Z,3.67
2023-01-21T21:05:48.214Z,3.93
2023-01-21T21:08:18.751Z,3.83
2023-01-21T21:10:45.525Z,3.47
2023-01-21T21:13:12.733Z,3.83
2023-01-21T21:15:39.686Z,4.10
2023-01-21T21:18:06.477Z,3.97
2023-01-21T21:20:38.745Z,3.63
2023-01-21T21:23:06.278Z,3.93
2023-01-21T21:25:34.370Z,3.20
2023-01-21T21:28:00.945Z,3.97
2023-01-21T21:30:29.610Z,3.30
2023-01-21T21:32:57.412Z,3.90
2023-01-21T21:35:31.410Z,3.70
2023-01-21T21:37:59.861Z,3.80
2023-01-21T21:40:27.230Z,4.10
2023-01-21T21:43:14.320Z,3.40
2023-01-21T21:46:00.899Z,3.47
2023-01-21T21:48:39.566Z,3.80
2023-01-21T21:51:06.539Z,4.10
2023-01-21T21:53:33.187Z,3.53
2023-01-21T21:56:07.766Z,3.47
2023-01-21T21:58:34.360Z,3.83
2023-01-21T22:01:24.320Z,4.03
2023-01-21T22:03:51.118Z,3.30
2023-01-21T22:06:18.415Z,3.73
2023-01-21T22:08:45.036Z,3.50
2023-01-21T22:11:19.112Z,3.73
2023-01-21T22:13:50.127Z,3.60
2023-01-21T22:16:18.818Z,3.70
2023-01-21T22:18:45.495Z,3.63
2023-01-21T22:21:20.148Z,4.23
2023-01-21T22:23:47.086Z,3.73
2023-01-21T22:26:15.965Z,3.50
2023-01-21T22:28:42.991Z,3.80
2023-01-21T22:31:12.063Z,3.87
2023-01-21T22:33:38.828Z,3.67
2023-01-21T22:36:06.466Z,3.40
2023-01-21T22:38:33.675Z,3.37
2023-01-21T22:41:00.268Z,3.40
2023-01-21T22:43:27.025Z,3.67
2023-01-21T22:45:54.991Z,3.63
2023-01-21T22:48:21.918Z,4.00
2023-01-21T22:50:59.009Z,3.60
2023-01-21T22:53:25.653Z,3.50
2023-01-21T22:55:56.561Z,3.30
2023-01-21T22:58:23.717Z,3.60
2023-01-21T23:00:50.401Z,3.67
2023-01-21T23:03:17.054Z,3.50
2023-01-21T23:05:43.639Z,3.60
2023-01-21T23:08:10.636Z,3.60
2023-01-21T23:10:37.250Z,3.83
2023-01-21T23:13:03.743Z,3.60
2023-01-21T23:15:30.334Z,3.47
2023-01-21T23:17:56.938Z,3.70
2023-01-21T23:20:28.739Z,3.73
2023-01-21T23:22:56.447Z,3.53
2023-01-21T23:25:23.050Z,3.47
2023-01-21T23:27:49.686Z,3.87
2023-01-21T23:30:16.876Z,3.30
2023-01-21T23:32:43.561Z,3.20
2023-01-21T23:35:10.131Z,3.43
2023-01-21T23:37:37.469Z,3.60
2023-01-21T23:40:05.286Z,3.43
2023-01-21T23:42:32.229Z,3.50
2023-01-21T23:44:58.826Z,3.20
2023-01-21T23:47:25.396Z,4.17
2023-01-21T23:49:51.986Z,3.30
2023-01-21T23:52:18.539Z,3.80
2023-01-21T23:54:45.538Z,3.70
2023-01-21T23:57:12.166Z,3.53
2023-01-21T23:59:38.812Z,3.50
